createdAt,value
2022-08-31T00:24:35.326Z,20.94
2022-08-31T00:25:42.254Z,20.84
2022-08-31T00:26:46.073Z,20.88
2022-08-31T00:27:50.839Z,20.86
2022-08-31T00:28:54.619Z,20.89
2022-08-31T00:29:58.504Z,20.90
2022-08-31T00:31:02.633Z,20.92
2022-08-31T00:32:06.595Z,20.82
2022-08-31T00:33:13.227Z,20.84
2022-08-31T00:34:17.077Z,20.85
2022-08-31T00:35:20.614Z,20.88
2022-08-31T00:36:25.859Z,20.88
2022-08-31T00:37:29.773Z,20.86
2022-08-31T00:38:35.199Z,20.85
2022-08-31T00:39:38.000Z,20.85
2022-08-31T00:40:45.366Z,20.84
2022-08-31T00:41:52.026Z,20.78
2022-08-31T00:42:57.242Z,20.69
2022-08-31T00:44:05.107Z,20.56
2022-08-31T00:45:10.492Z,20.55
2022-08-31T00:46:18.886Z,20.50
2022-08-31T00:47:26.070Z,20.46
2022-08-31T00:48:29.723Z,20.43
2022-08-31T00:49:41.634Z,20.43
2022-08-31T00:50:48.185Z,20.35
2022-08-31T00:52:04.196Z,20.31
2022-08-31T00:53:07.980Z,20.31
2022-08-31T00:54:15.381Z,20.32
2022-08-31T00:55:26.286Z,20.27
2022-08-31T00:56:32.958Z,20.23
2022-08-31T00:57:42.815Z,20.24
2022-08-31T00:58:48.900Z,20.28
2022-08-31T00:59:52.227Z,20.32
2022-08-31T01:00:55.887Z,20.35
2022-08-31T01:01:59.903Z,20.42
2022-08-31T01:03:08.563Z,20.38
2022-08-31T01:04:12.715Z,20.41
2022-08-31T01:05:18.735Z,20.45
2022-08-31T01:06:24.445Z,20.44
2022-08-31T01:07:31.560Z,20.47
2022-08-31T01:08:39.614Z,20.49
2022-08-31T01:09:55.903Z,20.49
2022-08-31T01:10:56.657Z,20.49
2022-08-31T01:12:00.512Z,20.51
2022-08-31T01:13:06.445Z,20.54
2022-08-31T01:14:11.635Z,20.40
2022-08-31T01:15:18.973Z,20.29
2022-08-31T01:16:32.449Z,20.26
2022-08-31T01:17:38.251Z,20.18
2022-08-31T01:18:44.623Z,20.24
2022-08-31T01:19:54.853Z,20.30
2022-08-31T01:21:22.796Z,20.39
2022-08-31T01:23:02.860Z,20.37
2022-08-31T01:24:08.816Z,20.42
2022-08-31T01:25:14.171Z,20.40
2022-08-31T01:26:22.133Z,20.36
2022-08-31T01:27:29.592Z,20.41
2022-08-31T01:28:32.387Z,20.27
2022-08-31T01:29:36.906Z,20.31
2022-08-31T01:30:51.651Z,20.32
2022-08-31T01:31:56.474Z,20.35
2022-08-31T01:32:59.909Z,20.34
2022-08-31T01:34:06.424Z,20.29
2022-08-31T01:36:27.228Z,20.39
2022-08-31T01:37:32.781Z,20.26
2022-08-31T01:38:38.376Z,20.27
2022-08-31T01:39:41.809Z,20.25
2022-08-31T01:41:03.200Z,20.20
2022-08-31T01:42:11.238Z,20.16
2022-08-31T01:43:15.065Z,19.99
2022-08-31T01:44:21.454Z,19.97
2022-08-31T01:45:29.909Z,19.92
2022-08-31T01:46:34.955Z,19.87
2022-08-31T01:47:44.141Z,19.82
2022-08-31T01:48:48.981Z,19.91
2022-08-31T01:49:53.231Z,19.84
2022-08-31T01:51:04.071Z,19.87
2022-08-31T01:52:08.000Z,19.87
2022-08-31T01:53:11.540Z,19.79
2022-08-31T01:54:15.907Z,19.79
2022-08-31T01:55:20.074Z,19.91
2022-08-31T01:56:30.018Z,19.94
2022-08-31T01:57:36.617Z,19.95
2022-08-31T01:59:00.000Z,19.88
2022-08-31T02:00:19.072Z,19.87
2022-08-31T02:01:33.510Z,19.87
2022-08-31T02:02:35.840Z,19.86
2022-08-31T02:04:56.632Z,19.97
2022-08-31T02:07:04.857Z,19.94
2022-08-31T02:08:11.430Z,19.96
2022-08-31T02:09:16.779Z,19.97
2022-08-31T02:10:20.196Z,19.98
2022-08-31T02:11:23.993Z,19.91
2022-08-31T02:12:28.649Z,19.93
2022-08-31T02:13:34.109Z,19.98
2022-08-31T02:14:37.677Z,19.94
2022-08-31T02:15:41.357Z,20.00
2022-08-31T02:16:46.903Z,19.98
2022-08-31T02:17:53.339Z,20.02
2022-08-31T02:18:57.317Z,20.03
2022-08-31T02:20:01.674Z,20.01
2022-08-31T02:21:07.065Z,20.02
2022-08-31T02:23:27.674Z,20.14
2022-08-31T02:24:33.350Z,20.02
2022-08-31T02:25:37.236Z,20.03
2022-08-31T02:26:42.134Z,20.05
2022-08-31T02:27:47.127Z,19.98
2022-08-31T02:28:50.995Z,19.84
2022-08-31T02:29:55.048Z,19.82
2022-08-31T02:30:58.831Z,19.84
2022-08-31T02:32:02.277Z,19.81
2022-08-31T02:33:06.728Z,19.86
2022-08-31T02:34:11.024Z,19.86
2022-08-31T02:35:18.085Z,19.80
2022-08-31T02:36:23.253Z,19.74
2022-08-31T02:37:28.119Z,19.76
2022-08-31T02:38:36.679Z,19.81
2022-08-31T02:39:41.669Z,19.75
2022-08-31T02:40:47.161Z,19.73
2022-08-31T02:41:50.744Z,19.69
2022-08-31T02:42:55.115Z,19.63
2022-08-31T02:44:00.462Z,19.61
2022-08-31T02:45:07.256Z,19.62
2022-08-31T02:46:11.282Z,19.54
2022-08-31T02:47:17.311Z,19.53
2022-08-31T02:48:25.771Z,19.55
2022-08-31T02:49:29.465Z,19.50
2022-08-31T02:50:39.890Z,19.53
2022-08-31T02:51:46.141Z,19.50
2022-08-31T02:52:51.318Z,19.46
2022-08-31T02:53:59.422Z,19.49
2022-08-31T02:55:03.771Z,19.51
2022-08-31T02:56:08.539Z,19.53
2022-08-31T02:57:13.066Z,19.55
2022-08-31T02:58:20.683Z,19.57
2022-08-31T02:59:22.665Z,19.59
2022-08-31T03:00:25.497Z,19.58
2022-08-31T03:01:28.600Z,19.60
2022-08-31T03:02:32.818Z,19.54
2022-08-31T03:03:40.511Z,19.47
2022-08-31T03:04:46.086Z,19.53
2022-08-31T03:05:51.393Z,19.58
2022-08-31T03:06:55.421Z,19.59
2022-08-31T03:07:59.151Z,19.62
2022-08-31T03:09:04.296Z,19.62
2022-08-31T03:10:10.486Z,19.66
2022-08-31T03:11:14.834Z,19.62
2022-08-31T03:12:20.553Z,19.62
2022-08-31T03:13:23.980Z,19.65
2022-08-31T03:14:27.829Z,19.69
2022-08-31T03:15:32.062Z,19.64
2022-08-31T03:16:42.109Z,19.70
2022-08-31T03:17:46.463Z,19.74
2022-08-31T03:18:53.133Z,19.77
2022-08-31T03:20:01.244Z,19.79
2022-08-31T03:21:05.059Z,19.83
2022-08-31T03:22:08.657Z,19.81
2022-08-31T03:23:11.763Z,19.83
2022-08-31T03:24:16.621Z,19.82
2022-08-31T03:25:21.191Z,19.90
2022-08-31T03:26:31.292Z,19.91
2022-08-31T03:27:38.043Z,19.94
2022-08-31T03:28:41.998Z,19.98
2022-08-31T03:29:56.816Z,20.03
2022-08-31T03:31:01.942Z,19.99
2022-08-31T03:32:05.341Z,19.86
2022-08-31T03:33:10.434Z,19.73
2022-08-31T03:34:16.037Z,19.70
2022-08-31T03:35:20.341Z,19.66
2022-08-31T03:36:25.612Z,19.61
2022-08-31T03:37:32.190Z,19.61
2022-08-31T03:38:35.702Z,19.52
2022-08-31T03:39:38.773Z,19.58
2022-08-31T03:40:42.849Z,19.55
2022-08-31T03:41:46.560Z,19.54
2022-08-31T03:42:49.778Z,19.58
2022-08-31T03:43:55.642Z,19.62
2022-08-31T03:44:59.139Z,19.61
2022-08-31T03:46:11.937Z,19.78
2022-08-31T03:47:11.713Z,19.84
2022-08-31T03:48:17.316Z,19.95
2022-08-31T03:49:22.466Z,19.97
2022-08-31T03:50:39.859Z,19.98
2022-08-31T03:51:46.084Z,20.00
2022-08-31T03:53:57.282Z,19.95
2022-08-31T03:55:05.900Z,19.87
2022-08-31T03:56:12.429Z,19.83
2022-08-31T03:57:17.599Z,19.82
2022-08-31T03:58:21.293Z,19.92
2022-08-31T03:59:25.611Z,20.00
2022-08-31T04:00:42.515Z,19.94
2022-08-31T04:01:48.066Z,19.96
2022-08-31T04:03:10.015Z,20.03
2022-08-31T04:04:15.438Z,20.11
2022-08-31T04:05:23.481Z,20.12
2022-08-31T04:06:44.837Z,20.17
2022-08-31T04:08:08.156Z,20.21
2022-08-31T04:10:47.623Z,20.33
2022-08-31T04:12:10.181Z,20.27
2022-08-31T04:13:19.164Z,20.31
2022-08-31T04:14:33.577Z,20.26
2022-08-31T04:15:59.550Z,20.27
2022-08-31T04:17:17.525Z,20.30
2022-08-31T04:18:22.279Z,20.03
2022-08-31T04:19:26.137Z,19.97
2022-08-31T04:20:40.224Z,19.94
2022-08-31T04:21:49.354Z,19.81
2022-08-31T04:24:05.611Z,20.06
2022-08-31T04:25:09.717Z,19.92
2022-08-31T04:26:20.820Z,20.10
2022-08-31T04:27:24.722Z,20.14
2022-08-31T04:28:28.819Z,20.26
2022-08-31T04:29:32.641Z,20.29
2022-08-31T04:30:41.274Z,20.31
2022-08-31T04:31:45.353Z,20.39
2022-08-31T04:32:49.425Z,20.50
2022-08-31T04:33:53.792Z,20.44
2022-08-31T04:34:58.991Z,20.36
2022-08-31T04:36:09.729Z,20.52
2022-08-31T04:37:16.456Z,20.63
2022-08-31T04:38:19.168Z,20.62
2022-08-31T04:39:24.114Z,20.75
2022-08-31T04:40:29.099Z,20.82
2022-08-31T04:41:37.201Z,20.91
2022-08-31T04:42:43.104Z,20.93
2022-08-31T04:43:51.846Z,20.96
2022-08-31T04:44:55.688Z,21.00
2022-08-31T04:46:02.282Z,21.06
2022-08-31T04:47:07.100Z,20.98
2022-08-31T04:48:10.972Z,21.12
2022-08-31T04:49:15.553Z,21.17
2022-08-31T04:50:23.420Z,21.21
2022-08-31T04:51:44.218Z,21.26
2022-08-31T04:53:03.865Z,21.35
2022-08-31T04:54:00.876Z,21.35
2022-08-31T04:55:07.772Z,21.43
2022-08-31T04:56:20.476Z,21.27
2022-08-31T04:57:24.443Z,21.33
2022-08-31T04:58:27.069Z,21.42
2022-08-31T04:59:31.286Z,21.62
2022-08-31T05:00:45.323Z,21.93
2022-08-31T05:01:50.906Z,23.23
2022-08-31T05:03:15.391Z,24.09
2022-08-31T05:04:23.546Z,24.13
2022-08-31T05:05:28.669Z,23.81
2022-08-31T05:06:35.233Z,23.41
2022-08-31T05:07:37.947Z,23.40
2022-08-31T05:08:44.483Z,23.63
2022-08-31T05:09:50.416Z,24.41
2022-08-31T05:10:55.176Z,25.21
2022-08-31T05:11:58.288Z,25.63
2022-08-31T05:13:02.872Z,25.32
2022-08-31T05:14:08.733Z,24.86
2022-08-31T05:15:13.998Z,24.58
2022-08-31T05:16:19.839Z,24.56
2022-08-31T05:17:23.869Z,24.40
2022-08-31T05:18:28.068Z,24.22
2022-08-31T05:19:40.995Z,24.29
2022-08-31T05:20:43.050Z,24.18
2022-08-31T05:21:51.114Z,23.93
2022-08-31T05:22:58.250Z,23.66
2022-08-31T05:24:11.623Z,23.60
2022-08-31T05:25:16.779Z,23.59
2022-08-31T05:26:26.693Z,23.44
2022-08-31T05:27:30.316Z,23.36
2022-08-31T05:28:34.915Z,23.36
2022-08-31T05:29:38.534Z,23.44
2022-08-31T05:31:01.205Z,23.18
2022-08-31T05:32:10.598Z,23.29
2022-08-31T05:33:16.407Z,23.47
2022-08-31T05:34:21.848Z,23.36
2022-08-31T05:35:26.186Z,23.41
2022-08-31T05:36:35.193Z,23.62
2022-08-31T05:37:36.270Z,23.98
2022-08-31T05:38:40.927Z,24.43
2022-08-31T05:39:46.574Z,24.73
2022-08-31T05:40:56.353Z,24.75
2022-08-31T05:41:59.624Z,24.81
2022-08-31T05:43:03.217Z,24.86
2022-08-31T05:44:12.162Z,25.09
2022-08-31T05:45:19.678Z,24.69
2022-08-31T05:46:29.201Z,24.95
2022-08-31T05:47:34.029Z,24.95
2022-08-31T05:48:38.895Z,24.80
2022-08-31T05:49:45.219Z,24.80
2022-08-31T05:50:50.923Z,25.44
2022-08-31T05:51:57.800Z,25.43
2022-08-31T05:53:03.291Z,25.37
2022-08-31T05:54:08.472Z,25.27
2022-08-31T05:55:16.520Z,24.52
2022-08-31T05:56:28.604Z,24.56
2022-08-31T05:57:33.346Z,24.81
2022-08-31T05:58:39.133Z,24.99
2022-08-31T05:59:42.498Z,25.06
2022-08-31T06:00:47.251Z,24.98
2022-08-31T06:01:53.163Z,25.17
2022-08-31T06:03:03.313Z,25.06
2022-08-31T06:04:09.082Z,25.38
2022-08-31T06:05:16.269Z,25.37
2022-08-31T06:06:22.859Z,25.69
2022-08-31T06:07:26.476Z,25.66
2022-08-31T06:08:33.535Z,25.52
2022-08-31T06:09:39.546Z,25.84
2022-08-31T06:10:48.322Z,26.07
2022-08-31T06:11:55.141Z,26.07
2022-08-31T06:12:59.193Z,26.28
2022-08-31T06:14:06.194Z,26.48
2022-08-31T06:15:13.931Z,26.57
2022-08-31T06:16:21.618Z,26.70
2022-08-31T06:17:29.231Z,26.97
2022-08-31T06:18:32.965Z,27.46
2022-08-31T06:19:41.044Z,27.62
2022-08-31T06:20:45.868Z,27.29
2022-08-31T06:21:51.548Z,27.28
2022-08-31T06:22:56.676Z,27.52
2022-08-31T06:24:04.005Z,27.39
2022-08-31T06:25:10.705Z,27.39
2022-08-31T06:26:17.051Z,27.44
2022-08-31T06:27:20.957Z,27.57
2022-08-31T06:28:26.490Z,27.31
2022-08-31T06:54:29.126Z,31.10
2022-08-31T06:55:36.062Z,30.30
2022-08-31T06:56:59.919Z,30.09
2022-08-31T06:58:04.559Z,31.05
2022-08-31T06:59:19.312Z,31.55
2022-08-31T07:00:41.823Z,32.52
2022-08-31T07:01:48.684Z,32.19
2022-08-31T07:02:57.595Z,32.36
2022-08-31T07:04:06.061Z,34.07
2022-08-31T07:05:15.064Z,36.44
2022-08-31T07:06:21.620Z,37.80
2022-08-31T07:07:32.363Z,38.80
2022-08-31T07:08:36.813Z,38.21
2022-08-31T07:09:45.538Z,37.09
2022-08-31T07:10:57.390Z,36.96
2022-08-31T07:12:03.209Z,36.41
2022-08-31T07:13:08.723Z,36.93
2022-08-31T07:14:16.720Z,37.75
2022-08-31T07:15:20.331Z,38.51
2022-08-31T07:16:27.217Z,38.82
2022-08-31T07:17:33.748Z,39.29
2022-08-31T07:18:40.384Z,39.00
2022-08-31T07:19:45.030Z,39.34
2022-08-31T07:20:50.240Z,39.29
2022-08-31T07:21:58.313Z,40.10
2022-08-31T07:23:01.983Z,40.29
2022-08-31T07:24:07.937Z,40.97
2022-08-31T07:25:15.719Z,40.21
2022-08-31T07:26:26.581Z,39.21
2022-08-31T07:27:30.323Z,39.56
2022-08-31T07:28:43.713Z,38.63
2022-08-31T07:29:50.841Z,37.71
2022-08-31T07:30:55.341Z,38.77
2022-08-31T07:32:00.357Z,38.57
2022-08-31T07:33:06.023Z,39.39
2022-08-31T07:34:17.829Z,40.35
2022-08-31T07:35:23.508Z,40.01
2022-08-31T07:36:32.754Z,39.10
2022-08-31T07:37:57.016Z,38.93
2022-08-31T07:39:24.188Z,39.43
2022-08-31T07:40:47.809Z,39.71
2022-08-31T07:42:11.739Z,39.92
2022-08-31T07:43:16.754Z,39.71
2022-08-31T07:44:24.790Z,39.34
2022-08-31T07:45:37.723Z,38.31
2022-08-31T07:46:41.509Z,35.27
2022-08-31T07:47:48.018Z,32.20
2022-08-31T07:48:53.194Z,30.53
2022-08-31T07:50:01.897Z,32.75
2022-08-31T07:52:29.919Z,36.56
2022-08-31T07:53:40.114Z,36.26
2022-08-31T07:54:59.075Z,34.38
2022-08-31T07:56:04.851Z,34.71
2022-08-31T07:57:18.257Z,33.42
2022-08-31T07:58:23.617Z,32.62
2022-08-31T07:59:26.884Z,34.45
2022-08-31T08:00:38.047Z,35.78
2022-08-31T08:01:49.057Z,35.55
2022-08-31T08:02:57.626Z,35.61
2022-08-31T08:04:05.078Z,36.38
2022-08-31T08:05:29.914Z,37.01
2022-08-31T08:06:36.555Z,32.59
2022-08-31T08:07:54.707Z,33.73
2022-08-31T08:09:24.180Z,34.85
2022-08-31T08:10:33.447Z,34.56
2022-08-31T08:12:01.206Z,34.78
2022-08-31T08:13:23.939Z,35.35
2022-08-31T08:14:33.724Z,36.10
2022-08-31T08:15:40.572Z,35.57
2022-08-31T08:18:10.411Z,35.13
2022-08-31T08:19:16.742Z,35.23
2022-08-31T08:20:34.573Z,35.19
2022-08-31T08:21:29.802Z,34.91
2022-08-31T08:22:54.268Z,34.95
2022-08-31T08:23:48.714Z,35.00
2022-08-31T08:25:03.018Z,34.64
2022-08-31T08:26:21.565Z,34.43
2022-08-31T08:27:40.537Z,34.82
2022-08-31T08:29:11.108Z,34.37
2022-08-31T08:30:18.661Z,34.48
2022-08-31T08:31:27.827Z,34.45
2022-08-31T08:32:35.745Z,34.66
2022-08-31T08:33:41.005Z,34.30
2022-08-31T08:34:46.539Z,33.90
2022-08-31T08:35:59.360Z,33.47
2022-08-31T08:37:05.257Z,33.99
2022-08-31T08:38:09.568Z,34.73
2022-08-31T08:40:40.050Z,34.13
2022-08-31T08:41:48.559Z,33.91
2022-08-31T08:42:54.422Z,34.10
2022-08-31T08:44:02.148Z,33.96
2022-08-31T08:45:09.110Z,32.11
2022-08-31T08:46:33.941Z,31.24
2022-08-31T08:47:24.016Z,31.29
2022-08-31T08:48:34.551Z,31.23
2022-08-31T08:49:54.866Z,30.60
2022-08-31T08:51:07.578Z,30.60
2022-08-31T08:52:36.921Z,29.76
2022-08-31T08:53:44.700Z,29.28
2022-08-31T08:55:09.035Z,28.80
2022-08-31T08:56:32.306Z,28.51
2022-08-31T08:57:26.627Z,29.40
2022-08-31T08:58:33.132Z,30.36
2022-08-31T08:59:37.795Z,30.70
2022-08-31T09:00:44.743Z,31.26
2022-08-31T09:01:54.401Z,32.12
2022-08-31T09:03:28.049Z,32.42
2022-08-31T09:04:47.944Z,32.18
2022-08-31T09:05:57.854Z,32.04
2022-08-31T09:07:08.671Z,32.78
2022-08-31T09:08:31.662Z,32.89
2022-08-31T09:09:57.249Z,32.99
2022-08-31T09:11:12.104Z,32.81
2022-08-31T09:12:40.144Z,32.28
2022-08-31T09:14:25.011Z,31.48
2022-08-31T09:15:52.288Z,30.39
2022-08-31T09:17:06.486Z,30.06
2022-08-31T09:18:13.734Z,30.11
2022-08-31T09:19:22.461Z,29.77
2022-08-31T09:20:29.872Z,29.74
2022-08-31T09:21:58.509Z,29.24
2022-08-31T09:23:04.700Z,28.98
2022-08-31T09:24:12.280Z,28.81
2022-08-31T09:27:03.811Z,29.26
2022-08-31T09:28:15.200Z,29.64
2022-08-31T09:29:29.059Z,30.50
2022-08-31T09:30:41.294Z,30.87
2022-08-31T09:31:46.347Z,31.25
2022-08-31T09:32:57.083Z,31.48
2022-08-31T09:34:01.219Z,31.52
2022-08-31T09:35:11.986Z,31.24
2022-08-31T09:36:24.071Z,30.70
2022-08-31T09:37:37.979Z,31.10
2022-08-31T09:38:42.685Z,31.18
2022-08-31T09:39:49.274Z,31.15
2022-08-31T09:40:54.156Z,31.39
2022-08-31T09:42:04.388Z,31.53
2022-08-31T09:43:17.774Z,31.95
2022-08-31T09:44:40.829Z,31.95
2022-08-31T09:46:02.099Z,31.04
2022-08-31T09:47:11.913Z,31.67
2022-08-31T09:48:19.242Z,31.29
2022-08-31T09:49:29.818Z,30.98
2022-08-31T09:50:46.874Z,30.21
2022-08-31T09:51:49.872Z,29.41
2022-08-31T09:53:32.007Z,29.31
2022-08-31T09:54:54.906Z,28.98
2022-08-31T09:56:23.288Z,28.27
2022-08-31T09:57:52.598Z,28.12
2022-08-31T09:59:06.043Z,28.85
2022-08-31T10:00:22.886Z,28.96
2022-08-31T10:01:46.281Z,29.10
2022-08-31T10:02:54.826Z,29.79
2022-08-31T10:04:23.064Z,29.47
2022-08-31T10:05:40.307Z,29.43
2022-08-31T10:07:09.823Z,30.64
2022-08-31T10:08:24.002Z,30.98
2022-08-31T10:10:54.690Z,31.89
2022-08-31T10:12:04.310Z,31.24
2022-08-31T10:13:20.593Z,31.73
2022-08-31T10:14:39.436Z,31.26
2022-08-31T10:15:48.904Z,31.53
2022-08-31T10:16:57.937Z,31.66
2022-08-31T10:18:06.497Z,31.48
2022-08-31T10:19:13.830Z,31.94
2022-08-31T10:20:20.679Z,31.84
2022-08-31T10:22:51.249Z,31.10
2022-08-31T10:24:05.792Z,30.69
2022-08-31T10:25:33.466Z,31.06
2022-08-31T10:26:48.626Z,31.28
2022-08-31T10:28:09.638Z,31.32
2022-08-31T10:29:24.963Z,31.45
2022-08-31T10:30:41.076Z,31.77
2022-08-31T10:31:48.587Z,31.23
2022-08-31T10:32:57.800Z,30.78
2022-08-31T10:34:27.023Z,30.46
2022-08-31T10:35:50.847Z,30.23
2022-08-31T10:38:23.804Z,29.50
2022-08-31T10:39:46.178Z,29.45
2022-08-31T10:40:54.175Z,29.19
2022-08-31T10:41:58.759Z,29.56
2022-08-31T10:43:15.981Z,29.99
2022-08-31T10:44:40.262Z,30.21
2022-08-31T10:45:49.916Z,30.59
2022-08-31T10:46:59.138Z,30.29
2022-08-31T10:48:03.598Z,29.89
2022-08-31T10:49:06.693Z,29.33
2022-08-31T10:50:17.700Z,29.02
2022-08-31T10:51:29.794Z,28.88
2022-08-31T10:52:38.437Z,28.80
2022-08-31T10:53:53.808Z,28.25
2022-08-31T10:56:46.265Z,28.62
2022-08-31T10:57:57.040Z,28.62
2022-08-31T10:59:10.483Z,28.36
2022-08-31T11:00:40.071Z,28.49
2022-08-31T11:01:47.046Z,28.66
2022-08-31T11:03:09.070Z,28.80
2022-08-31T11:04:39.426Z,28.97
2022-08-31T11:05:50.928Z,28.98
2022-08-31T11:07:28.697Z,28.92
2022-08-31T11:08:55.022Z,29.06
2022-08-31T11:10:30.237Z,28.82
2022-08-31T11:11:43.886Z,29.04
2022-08-31T11:12:47.169Z,29.38
2022-08-31T11:14:28.268Z,30.03
2022-08-31T11:15:47.499Z,30.15
2022-08-31T11:17:12.374Z,30.79
2022-08-31T11:20:01.388Z,30.34
2022-08-31T11:21:27.031Z,29.86
2022-08-31T11:22:40.557Z,29.68
2022-08-31T11:23:50.171Z,29.16
2022-08-31T11:25:26.985Z,28.84
2022-08-31T11:26:53.541Z,28.30
2022-08-31T11:28:04.359Z,28.62
2022-08-31T11:29:15.556Z,28.46
2022-08-31T11:30:29.614Z,28.46
2022-08-31T11:31:34.676Z,28.54
2022-08-31T11:32:42.798Z,28.36
2022-08-31T11:34:14.593Z,28.38
2022-08-31T11:35:06.678Z,28.55
2022-08-31T11:36:10.461Z,28.60
2022-08-31T11:37:53.153Z,28.59
2022-08-31T11:41:56.905Z,27.97
2022-08-31T11:43:01.691Z,27.74
2022-08-31T11:44:09.602Z,27.63
2022-08-31T11:45:32.968Z,27.55
2022-08-31T11:46:44.949Z,27.54
2022-08-31T11:47:49.548Z,27.87
2022-08-31T11:48:58.818Z,27.73
2022-08-31T11:50:07.767Z,27.71
2022-08-31T11:51:17.943Z,27.75
2022-08-31T11:52:35.003Z,27.60
2022-08-31T11:53:43.762Z,27.56
2022-08-31T11:54:51.329Z,28.04
2022-08-31T11:56:00.110Z,28.33
2022-08-31T11:57:06.860Z,28.26
2022-08-31T11:58:20.117Z,28.38
2022-08-31T11:59:26.696Z,28.77
2022-08-31T12:00:57.157Z,28.40
2022-08-31T12:02:24.534Z,28.62
2022-08-31T12:04:56.822Z,27.94
2022-08-31T12:06:00.528Z,27.51
2022-08-31T12:07:05.828Z,27.52
2022-08-31T12:08:12.757Z,27.30
2022-08-31T12:09:25.468Z,27.43
2022-08-31T12:10:35.813Z,27.47
2022-08-31T12:11:58.124Z,27.31
2022-08-31T12:13:20.788Z,27.41
2022-08-31T12:14:51.699Z,27.21
2022-08-31T12:16:13.346Z,27.28
2022-08-31T12:17:22.797Z,27.26
2022-08-31T12:18:33.035Z,27.13
2022-08-31T12:20:08.818Z,27.03
2022-08-31T12:21:46.129Z,27.17
2022-08-31T12:23:35.115Z,27.19
2022-08-31T12:25:17.450Z,27.17
2022-08-31T12:26:28.766Z,27.61
2022-08-31T12:27:57.084Z,27.50
2022-08-31T12:29:17.650Z,27.63
2022-08-31T12:30:26.407Z,27.98
2022-08-31T12:31:29.492Z,27.98
2022-08-31T12:32:37.929Z,27.92
2022-08-31T12:34:03.068Z,27.84
2022-08-31T12:35:25.067Z,27.78
2022-08-31T12:36:31.784Z,28.11
2022-08-31T12:37:45.443Z,28.01
2022-08-31T12:38:53.207Z,27.88
2022-08-31T12:40:18.935Z,27.59
2022-08-31T12:41:25.519Z,27.55
2022-08-31T12:42:32.029Z,27.76
2022-08-31T12:43:45.278Z,27.60
2022-08-31T12:44:52.717Z,27.71
2022-08-31T12:46:05.636Z,27.69
2022-08-31T12:47:28.952Z,27.80
2022-08-31T12:48:59.020Z,27.49
2022-08-31T12:50:11.028Z,27.68
2022-08-31T12:51:39.395Z,28.16
2022-08-31T12:53:03.684Z,28.52
2022-08-31T12:54:25.665Z,28.88
2022-08-31T12:55:39.156Z,28.89
2022-08-31T12:57:01.247Z,28.36
2022-08-31T13:00:01.015Z,28.72
2022-08-31T13:01:17.882Z,28.53
2022-08-31T13:02:22.408Z,28.42
2022-08-31T13:03:28.795Z,28.29
2022-08-31T13:04:32.259Z,28.62
2022-08-31T13:05:39.013Z,28.56
2022-08-31T13:06:46.434Z,28.34
2022-08-31T13:09:07.570Z,28.05
2022-08-31T13:10:15.397Z,28.00
2022-08-31T13:11:40.773Z,27.89
2022-08-31T13:12:54.858Z,27.56
2022-08-31T13:14:12.286Z,27.21
2022-08-31T13:15:39.130Z,27.50
2022-08-31T13:16:51.333Z,27.98
2022-08-31T13:17:57.269Z,27.59
2022-08-31T13:19:07.046Z,27.56
2022-08-31T13:20:15.212Z,27.58
2022-08-31T13:21:23.166Z,27.85
2022-08-31T13:22:32.887Z,27.47
2022-08-31T13:23:39.742Z,27.54
2022-08-31T13:24:53.503Z,27.78
2022-08-31T13:26:23.139Z,27.85
2022-08-31T13:27:28.918Z,27.98
2022-08-31T13:28:33.584Z,27.73
2022-08-31T13:49:29.567Z,26.47
2022-08-31T13:50:48.833Z,26.47
2022-08-31T13:51:55.531Z,26.64
2022-08-31T13:53:26.493Z,26.92
2022-08-31T13:54:12.805Z,26.96
2022-08-31T13:55:37.192Z,27.11
2022-08-31T13:56:56.990Z,27.02
2022-08-31T13:58:03.933Z,26.98
2022-08-31T13:59:35.094Z,26.74
2022-08-31T14:00:41.795Z,26.88
2022-08-31T14:01:50.913Z,27.07
2022-08-31T14:03:00.431Z,27.31
2022-08-31T14:04:03.863Z,27.35
2022-08-31T14:05:14.356Z,27.52
2022-08-31T14:06:25.110Z,27.50
2022-08-31T14:08:59.460Z,26.95
2022-08-31T14:10:11.359Z,27.03
2022-08-31T14:11:16.440Z,27.10
2022-08-31T14:12:25.281Z,27.09
2022-08-31T14:13:30.801Z,26.99
2022-08-31T14:14:44.068Z,26.77
2022-08-31T14:15:56.608Z,26.77
2022-08-31T14:17:03.554Z,26.96
2022-08-31T14:18:25.686Z,27.06
2022-08-31T14:19:39.578Z,27.08
2022-08-31T14:21:03.956Z,27.23
2022-08-31T14:21:56.641Z,26.87
2022-08-31T14:23:01.721Z,26.86
2022-08-31T14:24:09.453Z,26.67
2022-08-31T14:25:12.755Z,26.65
2022-08-31T14:26:22.997Z,26.53
2022-08-31T14:27:26.874Z,26.37
2022-08-31T14:28:43.903Z,26.58
2022-08-31T14:29:50.604Z,26.78
2022-08-31T14:30:55.486Z,26.23
2022-08-31T14:31:59.909Z,26.23
2022-08-31T14:33:04.242Z,26.43
2022-08-31T14:34:24.289Z,26.48
2022-08-31T14:35:28.543Z,26.56
2022-08-31T14:36:36.394Z,26.56
2022-08-31T14:37:43.128Z,26.55
2022-08-31T14:38:48.043Z,26.38
2022-08-31T14:40:04.174Z,26.10
2022-08-31T14:41:10.382Z,26.29
2022-08-31T14:42:25.578Z,26.31
2022-08-31T14:43:30.411Z,26.43
2022-08-31T14:44:47.438Z,26.15
2022-08-31T14:45:58.377Z,26.16
2022-08-31T14:47:01.773Z,25.89
2022-08-31T14:48:08.318Z,25.98
2022-08-31T14:49:13.065Z,25.99
2022-08-31T14:50:20.841Z,25.94
2022-08-31T14:51:27.582Z,25.77
2022-08-31T14:52:38.046Z,25.77
2022-08-31T14:53:43.719Z,25.90
2022-08-31T14:54:48.598Z,26.14
2022-08-31T14:55:55.405Z,26.28
2022-08-31T14:57:01.070Z,26.40
2022-08-31T14:58:09.447Z,26.19
2022-08-31T14:59:22.290Z,26.14
2022-08-31T15:00:29.039Z,26.12
2022-08-31T15:01:38.585Z,26.11
2022-08-31T15:02:43.727Z,26.26
2022-08-31T15:03:47.661Z,26.19
2022-08-31T15:04:52.480Z,26.27
2022-08-31T15:05:57.387Z,26.15
2022-08-31T15:07:09.496Z,26.29
2022-08-31T15:08:15.297Z,26.51
2022-08-31T15:09:25.160Z,26.44
2022-08-31T15:10:29.995Z,26.47
2022-08-31T15:11:36.482Z,26.44
2022-08-31T15:12:41.033Z,26.32
2022-08-31T15:13:45.865Z,26.43
2022-08-31T15:14:51.786Z,26.32
2022-08-31T15:15:58.047Z,26.58
2022-08-31T15:17:09.662Z,26.62
2022-08-31T15:18:16.767Z,26.61
2022-08-31T15:19:26.870Z,26.63
2022-08-31T15:20:35.267Z,26.88
2022-08-31T15:21:52.193Z,26.80
2022-08-31T15:22:53.397Z,26.92
2022-08-31T15:23:59.071Z,26.83
2022-08-31T15:25:06.154Z,26.60
2022-08-31T15:26:15.887Z,26.78
2022-08-31T15:27:22.378Z,26.94
2022-08-31T15:28:29.596Z,26.74
2022-08-31T15:29:35.583Z,26.72
2022-08-31T15:30:40.511Z,26.59
2022-08-31T15:31:53.373Z,26.59
2022-08-31T15:32:58.639Z,26.29
2022-08-31T15:34:01.935Z,26.37
2022-08-31T15:35:08.777Z,26.19
2022-08-31T15:36:16.985Z,26.00
2022-08-31T15:37:22.639Z,25.98
2022-08-31T15:38:25.687Z,25.71
2022-08-31T15:39:39.681Z,25.68
2022-08-31T15:40:45.140Z,25.72
2022-08-31T15:41:51.471Z,25.83
2022-08-31T15:42:54.727Z,25.75
2022-08-31T15:43:57.914Z,25.68
2022-08-31T15:45:02.888Z,25.57
2022-08-31T15:46:13.260Z,25.35
2022-08-31T15:47:33.522Z,25.48
2022-08-31T15:48:45.899Z,25.43
2022-08-31T15:49:52.548Z,25.56
2022-08-31T15:51:03.820Z,25.42
2022-08-31T15:52:10.107Z,25.51
2022-08-31T15:53:14.458Z,25.39
2022-08-31T15:54:23.037Z,25.27
2022-08-31T15:55:27.706Z,25.28
2022-08-31T15:56:40.220Z,25.30
2022-08-31T15:57:43.818Z,25.27
2022-08-31T15:58:49.066Z,25.35
2022-08-31T15:59:54.451Z,25.25
2022-08-31T16:00:58.005Z,25.22
2022-08-31T16:02:05.039Z,25.24
2022-08-31T16:03:10.229Z,25.08
2022-08-31T16:04:17.177Z,25.10
2022-08-31T16:05:22.615Z,25.02
2022-08-31T16:06:31.101Z,24.93
2022-08-31T16:07:39.830Z,24.98
2022-08-31T16:08:43.884Z,25.02
2022-08-31T16:09:48.718Z,24.95
2022-08-31T16:10:53.244Z,24.97
2022-08-31T16:11:57.224Z,24.90
2022-08-31T16:13:03.140Z,24.90
2022-08-31T16:14:09.271Z,24.97
2022-08-31T16:15:16.713Z,24.86
2022-08-31T16:16:30.945Z,24.88
2022-08-31T16:17:33.827Z,24.69
2022-08-31T16:18:39.188Z,24.61
2022-08-31T16:19:42.779Z,24.38
2022-08-31T16:20:47.580Z,24.51
2022-08-31T16:21:51.640Z,24.52
2022-08-31T16:22:58.826Z,24.57
2022-08-31T16:24:08.749Z,24.58
2022-08-31T16:25:15.587Z,24.62
2022-08-31T16:26:22.024Z,24.65
2022-08-31T16:27:24.875Z,24.64
2022-08-31T16:28:30.108Z,24.69
2022-08-31T16:29:34.417Z,24.67
2022-08-31T16:30:38.272Z,24.67
2022-08-31T16:31:45.282Z,24.75
2022-08-31T16:32:56.503Z,24.65
2022-08-31T16:34:06.400Z,24.52
2022-08-31T16:35:10.847Z,24.58
2022-08-31T16:36:18.723Z,24.58
2022-08-31T16:37:27.939Z,24.60